M I D A S
Marine Information and Data Acquisition System
Tripno 973 of the Zeeleeuw from 2005-10-18 06:32:33 to 2005-10-18 12:00:50
Back to CruiseResearch ActivitiesStationsMapUnderway DataData graphs

EquipmentUnitsComment
TimeDGPSUTC
LatitudeDGPSDM.mWGS84
LongitudeDGPSDM.mWGS84
TemperatureSBE03/SBE38deg celciusITS90
ConductivitySBE21S/mITS90
SalinitySBE21 Practical Salinity Units
ChlorophylAChelsea fluorimeterg/lCalibrated in Aceton
Missing or incorrect values are displayed as -999
Sea surface data collected by the RV Zeeleeuw from 2005-10-18 06:32:07 to 2005-10-18 12:07:32
Time Latitude Longitude Temperature Conductivity Salinity ChlorophylA
2005-10-18 06:33:11 51°13.618 2°56.04 -999 0.062819 0.357394 -0.983506
2005-10-18 06:34:11 51°13.644 2°55.946 -999 0.062716 0.35685 -0.949796
2005-10-18 06:35:13 51°13.688 2°55.835 -999 0.062716 0.356883 -0.949796
2005-10-18 06:36:11 51°13.746 2°55.727 -999 0.062716 0.356923 -0.949796
2005-10-18 06:37:13 51°13.835 2°55.645 -999 0.062716 0.356956 -0.949796
2005-10-18 06:38:11 51°13.921 2°55.653 -999 0.062716 0.356956 -0.949796
2005-10-18 06:39:11 51°13.95 2°55.66 -999 0.062716 0.357016 -0.949796
2005-10-18 06:40:11 51°14.003 2°55.54 -999 0.062716 0.35703 -0.949796
2005-10-18 06:41:11 51°14.132 2°55.413 -999 0.062716 0.35709 -0.949796
2005-10-18 06:42:11 51°14.268 2°55.242 -999 0.062716 0.357143 -0.949796
2005-10-18 06:43:12 51°14.388 2°55.01 -999 0.062716 0.357136 -0.949796
2005-10-18 06:44:11 51°14.554 2°54.821 -999 0.062716 0.357136 -0.949796
2005-10-18 06:45:11 51°14.743 2°54.684 -999 0.062716 0.357236 -0.949796
2005-10-18 06:46:11 51°14.918 2°54.504 -999 0.062716 0.357216 -0.949796
2005-10-18 06:47:12 51°15.105 2°54.383 -999 0.062716 0.357256 -0.949796
2005-10-18 06:48:11 51°15.282 2°54.249 -999 0.062716 0.357283 -0.949796
2005-10-18 06:49:11 51°15.46 2°54.075 -999 0.062716 0.357323 -0.949796
2005-10-18 06:50:11 51°15.646 2°53.909 -999 0.062716 0.35735 -0.949796
2005-10-18 06:51:12 51°15.839 2°53.747 -999 0.062716 0.357397 -0.949796
2005-10-18 06:52:11 51°16.024 2°53.595 -999 0.062613 0.356812 -0.949796
2005-10-18 06:53:12 51°16.214 2°53.431 -999 0.062613 0.356858 -0.949796
2005-10-18 06:54:11 51°16.396 2°53.273 -999 0.062613 0.356878 -0.949796
2005-10-18 06:55:11 51°16.585 2°53.125 -999 0.062613 0.356918 -0.949796
2005-10-18 06:56:12 51°16.777 2°52.984 -999 0.062613 0.356945 -0.949796
2005-10-18 06:57:12 51°16.951 2°52.83 -999 0.062613 0.356985 -0.949796
2005-10-18 06:58:12 51°17.132 2°52.675 -999 0.062613 0.356999 -0.949796
2005-10-18 06:59:11 51°17.31 2°52.521 -999 0.062613 0.357052 -0.949796
2005-10-18 07:00:11 51°17.491 2°52.36 -999 0.062613 0.357065 -0.949796
2005-10-18 07:01:11 51°17.671 2°52.196 -999 0.062613 0.357106 -0.916087
2005-10-18 07:02:11 51°17.85 2°52.033 -999 0.062613 0.357139 -0.949796
2005-10-18 07:03:11 51°18.03 2°51.868 -999 0.062613 0.357172 -0.949796
2005-10-18 07:04:12 51°18.214 2°51.7 -999 0.062613 0.357206 -0.916087
2005-10-18 07:05:12 51°18.396 2°51.532 -999 0.062613 0.357233 -0.949796
2005-10-18 07:06:12 51°18.576 2°51.362 -999 0.062613 0.357266 -0.916087
2005-10-18 07:07:12 51°18.759 2°51.196 -999 0.062613 0.357293 -0.916087
2005-10-18 07:08:11 51°18.941 2°51.046 -999 0.06251 0.35672 -0.916087
2005-10-18 07:09:11 51°19.126 2°50.895 -999 0.06251 0.356767 -0.916087
2005-10-18 07:10:11 51°19.31 2°50.745 -999 0.06251 0.35678 -0.916087
2005-10-18 07:11:11 51°19.495 2°50.597 -999 0.06251 0.356821 -0.916087
2005-10-18 07:12:11 51°19.684 2°50.45 -999 0.06251 0.356827 -0.916087
2005-10-18 07:13:11 51°19.874 2°50.302 -999 0.06251 0.356874 -0.916087
2005-10-18 07:14:11 51°20.063 2°50.153 -999 0.06251 0.356901 -0.916087
2005-10-18 07:15:11 51°20.252 2°50.002 -999 0.06251 0.356941 -0.916087
2005-10-18 07:16:11 51°20.44 2°49.848 -999 0.06251 0.356974 -0.916087
2005-10-18 07:17:11 51°20.628 2°49.688 -999 0.06251 0.356988 -0.916087
2005-10-18 07:18:11 51°20.817 2°49.527 -999 0.06251 0.357028 -0.916087
2005-10-18 07:19:11 51°21.005 2°49.365 -999 0.06251 0.357108 -0.916087
2005-10-18 07:20:11 51°21.196 2°49.202 -999 0.06251 0.357082 -0.916087
2005-10-18 07:21:11 51°21.386 2°49.039 -999 0.06251 0.357175 -0.916087
2005-10-18 07:22:11 51°21.576 2°48.872 -999 0.06251 0.357122 -0.916087
2005-10-18 07:23:11 51°21.767 2°48.705 -999 0.06251 0.357189 -0.916087
2005-10-18 07:24:11 51°21.957 2°48.542 -999 0.06251 0.357189 -0.916087
2005-10-18 07:25:11 51°22.142 2°48.361 -999 0.062407 0.356676 -0.916087
2005-10-18 07:26:11 51°22.321 2°48.176 -999 0.062407 0.356615 -0.916087
2005-10-18 07:27:11 51°22.487 2°47.976 -999 0.062407 0.356682 -0.916087
2005-10-18 07:28:11 51°22.658 2°47.786 -999 0.062407 0.356689 -0.916087
2005-10-18 07:29:11 51°22.825 2°47.585 -999 0.062407 0.356703 -0.916087
2005-10-18 07:30:11 51°22.993 2°47.381 -999 0.062407 0.356716 -0.916087
2005-10-18 07:31:11 51°23.165 2°47.185 -999 0.062407 0.356729 -0.916087
2005-10-18 07:32:11 51°23.335 2°46.984 -999 0.062407 0.356736 -0.916087
2005-10-18 07:33:11 51°23.508 2°46.784 -999 0.062407 0.35677 -0.916087
2005-10-18 07:34:11 51°23.686 2°46.621 -999 0.062407 0.35677 -0.916087
2005-10-18 07:35:11 51°23.878 2°46.565 -999 0.062407 0.356763 -0.916087
2005-10-18 07:36:11 51°24.055 2°46.638 -999 0.062407 0.356803 -0.916087
2005-10-18 07:37:11 51°24.211 2°46.782 -999 0.062407 0.35681 -0.916087
2005-10-18 07:38:11 51°24.346 2°46.968 -999 0.062407 0.356816 -0.916087
2005-10-18 07:39:11 51°24.47 2°47.171 -999 0.062407 0.356843 -0.916087
2005-10-18 07:40:11 51°24.577 2°47.396 -999 0.062407 0.356863 -0.916087
2005-10-18 07:41:11 51°24.678 2°47.624 -999 0.062407 0.35689 -0.916087
2005-10-18 07:42:12 51°24.772 2°47.864 -999 0.062407 0.356904 -0.916087
2005-10-18 07:43:11 51°24.856 2°48.103 -999 0.062407 0.356924 -0.916087
2005-10-18 07:44:11 51°24.931 2°48.356 -999 0.062407 0.356937 -0.882377
2005-10-18 07:45:11 51°25.007 2°48.607 -999 0.062407 0.356971 -0.916087
2005-10-18 07:46:11 51°25.083 2°48.858 -999 0.062407 0.356998 -0.916087
2005-10-18 07:47:11 51°25.158 2°49.105 -999 0.062407 0.357024 -0.916087
2005-10-18 07:48:11 51°25.23 2°49.356 -999 0.062407 0.357058 -0.916087
2005-10-18 07:49:11 51°25.297 2°49.61 -999 0.062407 0.357092 -0.916087
2005-10-18 07:50:11 51°25.361 2°49.867 -999 0.062407 0.357118 -0.882377
2005-10-18 07:51:11 51°25.418 2°50.13 -999 0.062407 0.357152 -0.882377
2005-10-18 07:52:11 51°25.474 2°50.39 -999 0.062407 0.357179 -0.882377
2005-10-18 07:53:11 51°25.53 2°50.652 -999 0.062407 0.357212 -0.882377
2005-10-18 07:54:11 51°25.587 2°50.913 -999 0.062305 0.356638 -0.882377
2005-10-18 07:55:11 51°25.643 2°51.173 -999 0.062305 0.356665 -0.882377
2005-10-18 07:56:11 51°25.698 2°51.429 -999 0.062305 0.356698 -0.882377
2005-10-18 07:57:12 51°25.755 2°51.693 -999 0.062305 0.356732 -0.882377
2005-10-18 07:58:12 51°25.812 2°51.958 -999 0.062305 0.356759 -0.882377
2005-10-18 07:59:11 51°25.867 2°52.219 -999 0.062305 0.356813 -0.882377
2005-10-18 08:00:11 51°25.924 2°52.481 -999 0.062305 0.35686 -0.882377
2005-10-18 08:01:11 51°25.982 2°52.743 -999 0.062305 0.356913 -0.882377
2005-10-18 08:02:12 51°26.04 2°53.013 -999 0.062305 0.356954 -0.882377
2005-10-18 08:03:11 51°26.101 2°53.274 -999 0.062305 0.356994 -0.882377
2005-10-18 08:04:11 51°26.175 2°53.532 -999 0.062202 0.356426 -0.882377
2005-10-18 08:05:11 51°26.25 2°53.792 -999 0.062202 0.356446 -0.848668
2005-10-18 08:06:11 51°26.324 2°54.048 -999 0.062305 0.357068 -0.848668
2005-10-18 08:07:12 51°26.397 2°54.306 -999 0.062202 0.356459 -0.848668
2005-10-18 08:08:11 51°26.467 2°54.553 -999 0.062202 0.356459 -0.848668
2005-10-18 08:09:12 51°26.537 2°54.811 -999 0.062202 0.356453 -0.848668
2005-10-18 08:10:12 51°26.607 2°55.064 -999 0.062202 0.356433 -0.848668
2005-10-18 08:11:11 51°26.675 2°55.317 -999 0.062305 0.357035 -0.848668
2005-10-18 08:12:11 51°26.746 2°55.576 -999 0.062305 0.357014 -0.848668
2005-10-18 08:13:11 51°26.817 2°55.838 -999 0.062305 0.356994 -0.848668
2005-10-18 08:14:11 51°26.89 2°56.102 -999 0.062305 0.356967 -0.848668
2005-10-18 08:15:11 51°26.962 2°56.363 -999 0.062305 0.356947 -0.848668
2005-10-18 08:16:11 51°27.031 2°56.622 -999 0.062305 0.356927 -0.848668
2005-10-18 08:17:11 51°27.097 2°56.875 -999 0.062305 0.356907 -0.848668
2005-10-18 08:18:11 51°27.166 2°57.131 -999 0.062305 0.35688 -0.848668
2005-10-18 08:19:12 51°27.228 2°57.399 -999 0.062407 0.357468 -0.848668
2005-10-18 08:20:11 51°27.289 2°57.667 -999 0.062407 0.357448 -0.848668
2005-10-18 08:21:12 51°27.349 2°57.948 -999 0.062407 0.357441 -0.848668
2005-10-18 08:22:11 51°27.411 2°58.219 -999 0.062407 0.357434 -0.848668
2005-10-18 08:23:11 51°27.474 2°58.493 -999 0.062407 0.357434 -0.848668
2005-10-18 08:24:12 51°27.538 2°58.775 -999 0.062407 0.357441 -0.814958
2005-10-18 08:25:12 51°27.603 2°59.052 -999 0.062407 0.357448 -0.814958
2005-10-18 08:26:11 51°27.665 2°59.324 -999 0.062407 0.357448 -0.814958
2005-10-18 08:27:12 51°27.729 2°59.607 -999 0.062407 0.357448 -0.814958
2005-10-18 08:28:11 51°27.791 2°59.879 -999 0.062407 0.357441 -0.814958
2005-10-18 08:29:12 51°27.855 3°0.16 -999 0.062407 0.357441 -0.814958
2005-10-18 08:30:12 51°27.918 3°0.434 -999 0.062407 0.357441 -0.814958
2005-10-18 08:31:12 51°27.983 3°0.708 -999 0.062407 0.357441 -0.814958
2005-10-18 08:32:12 51°28.047 3°0.984 -999 0.062407 0.357455 -0.814958
2005-10-18 08:33:12 51°28.111 3°1.261 -999 0.062407 0.357461 -0.814958
2005-10-18 08:34:11 51°28.176 3°1.529 -999 0.062407 0.357461 -0.814958
2005-10-18 08:35:12 51°28.241 3°1.809 -999 0.062407 0.357461 -0.781249
2005-10-18 08:36:12 51°28.306 3°2.083 -999 0.062407 0.357461 -0.781249
2005-10-18 08:37:12 51°28.372 3°2.359 -999 0.062407 0.357455 -0.781249
2005-10-18 08:38:11 51°28.439 3°2.624 -999 0.062407 0.357448 -0.781249
2005-10-18 08:39:11 51°28.534 3°2.879 -999 0.062407 0.357434 -0.781249
2005-10-18 08:40:12 51°28.64 3°3.119 -999 0.062407 0.357428 -0.781249
2005-10-18 08:41:12 51°28.806 3°3.238 -999 0.062407 0.357461 -0.781249
2005-10-18 08:42:12 51°29 3°3.268 -999 0.062407 0.357482 -0.781249
2005-10-18 08:43:11 51°29.19 3°3.291 -999 0.062407 0.357623 -0.781249
2005-10-18 08:44:12 51°29.388 3°3.311 -999 0.062407 0.357434 -0.781249
2005-10-18 08:45:12 51°29.577 3°3.228 -999 0.062407 0.357643 -0.781249
2005-10-18 08:46:11 51°29.727 3°3.006 -999 0.062407 0.357636 -0.781249
2005-10-18 08:47:11 51°29.802 3°2.669 -999 0.062407 0.35769 -0.781249
2005-10-18 08:48:11 51°29.78 3°2.278 -999 0.062407 0.357717 -0.781249
2005-10-18 08:49:11 51°29.736 3°1.888 -999 0.062407 0.357846 -0.781249
2005-10-18 08:50:11 51°29.708 3°1.501 -999 0.062407 0.357738 -0.814958
2005-10-18 08:51:12 51°29.681 3°1.113 -999 0.062407 0.357825 -0.814958
2005-10-18 08:52:11 51°29.642 3°0.738 -999 0.062407 0.357846 -0.781249
2005-10-18 08:53:12 51°29.594 3°0.343 -999 0.062407 0.357873 -0.814958
2005-10-18 08:54:11 51°29.529 2°59.967 -999 0.062407 0.357987 -0.781249
2005-10-18 08:55:12 51°29.473 2°59.577 -999 0.062407 0.357947 -0.781249
2005-10-18 08:56:12 51°29.411 2°59.196 -999 0.062305 0.357385 -0.814958
2005-10-18 08:57:11 51°29.339 2°58.823 -999 0.062305 0.357405 -0.814958
2005-10-18 08:58:12 51°29.252 2°58.443 -999 0.062305 0.357432 -0.814958
2005-10-18 08:59:13 51°29.166 2°58.065 -999 0.062305 0.357479 -0.814958
2005-10-18 09:00:11 51°29.083 2°57.704 -999 0.062305 0.357499 -0.814958
2005-10-18 09:01:12 51°28.997 2°57.328 -999 0.062305 0.357547 -0.814958
2005-10-18 09:02:11 51°28.915 2°56.973 -999 0.062305 0.35758 -0.814958
2005-10-18 09:03:12 51°28.828 2°56.607 -999 0.062305 0.357655 -0.814958
2005-10-18 09:04:12 51°28.748 2°56.245 -999 0.062305 0.357689 -0.814958
2005-10-18 09:05:11 51°28.674 2°55.881 -999 0.062305 0.357709 -0.814958
2005-10-18 09:06:12 51°28.599 2°55.505 -999 0.062305 0.357743 -0.814958
2005-10-18 09:07:12 51°28.525 2°55.139 -999 0.062305 0.357783 -0.814958
2005-10-18 09:08:12 51°28.46 2°54.761 -999 0.062202 0.357193 -0.814958
2005-10-18 09:09:11 51°28.407 2°54.39 -999 0.062202 0.357268 -0.814958
2005-10-18 09:10:12 51°28.349 2°53.999 -999 0.062202 0.357322 -0.848668
2005-10-18 09:11:11 51°28.288 2°53.621 -999 0.062202 0.357369 -0.848668
2005-10-18 09:12:12 51°28.224 2°53.222 -999 0.062202 0.357416 -0.848668
2005-10-18 09:13:12 51°28.168 2°52.832 -999 0.062202 0.35747 -0.848668
2005-10-18 09:14:11 51°28.109 2°52.442 -999 0.062202 0.357497 -0.848668
2005-10-18 09:15:12 51°28.05 2°52.044 -999 0.062202 0.357558 -0.848668
2005-10-18 09:16:11 51°27.998 2°51.667 -999 0.062202 0.357599 -0.848668
2005-10-18 09:17:12 51°27.935 2°51.276 -999 0.062202 0.357626 -0.848668
2005-10-18 09:18:12 51°27.882 2°50.878 -999 0.062202 0.35764 -0.848668
2005-10-18 09:19:12 51°27.84 2°50.491 -999 0.062202 0.357707 -0.848668
2005-10-18 09:20:12 51°27.795 2°50.099 -999 0.062202 0.357734 -0.848668
2005-10-18 09:21:12 51°27.749 2°49.711 -999 0.062202 0.357789 -0.848668
2005-10-18 09:22:13 51°27.703 2°49.309 -999 0.062202 0.357829 -0.848668
2005-10-18 09:23:12 51°27.66 2°48.921 -999 0.062202 0.35785 -0.848668
2005-10-18 09:24:12 51°27.612 2°48.535 -999 0.062202 0.357883 -0.848668
2005-10-18 09:25:12 51°27.561 2°48.16 -999 0.062099 0.35732 -0.848668
2005-10-18 09:26:11 51°27.507 2°47.786 -999 0.062099 0.357347 -0.848668
2005-10-18 09:27:12 51°27.454 2°47.399 -999 0.062099 0.357394 -0.848668
2005-10-18 09:28:12 51°27.399 2°47.018 -999 0.062099 0.357428 -0.848668
2005-10-18 09:29:11 51°27.346 2°46.64 -999 0.062099 0.357462 -0.848668
2005-10-18 09:30:11 51°27.291 2°46.261 -999 0.062099 0.357503 -0.848668
2005-10-18 09:31:11 51°27.24 2°45.87 -999 0.062099 0.357536 -0.848668
2005-10-18 09:32:12 51°27.191 2°45.472 -999 0.062099 0.35757 -0.848668
2005-10-18 09:33:11 51°27.138 2°45.092 -999 0.062099 0.357584 -0.848668
2005-10-18 09:34:12 51°27.087 2°44.697 -999 0.062099 0.357638 -0.848668
2005-10-18 09:35:11 51°27.126 2°44.36 -999 0.062099 0.357686 -0.848668
2005-10-18 09:36:11 51°27.309 2°44.203 -999 0.062099 0.357706 -0.848668
2005-10-18 09:37:11 51°27.502 2°44.081 -999 0.062099 0.35776 -0.848668
2005-10-18 09:38:11 51°27.695 2°43.956 -999 0.062099 0.357794 -0.848668
2005-10-18 09:39:11 51°27.889 2°43.836 -999 0.062099 0.357822 -0.848668
2005-10-18 09:40:11 51°28.08 2°43.721 -999 0.062099 0.357849 -0.848668
2005-10-18 09:41:11 51°28.271 2°43.601 -999 0.062099 0.357903 -0.848668
2005-10-18 09:42:11 51°28.465 2°43.487 -999 0.062099 0.357937 -0.848668
2005-10-18 09:43:11 51°28.658 2°43.387 -999 0.062099 0.358005 -0.848668
2005-10-18 09:44:12 51°28.789 2°43.566 -999 0.062099 0.357985 -0.814958
2005-10-18 09:45:11 51°28.846 2°43.846 -999 0.062099 0.358032 -0.848668
2005-10-18 09:46:12 51°28.902 2°44.139 -999 0.062099 0.358073 -0.814958
2005-10-18 09:47:11 51°28.957 2°44.429 -999 0.062099 0.358107 -0.814958
2005-10-18 09:48:11 51°29.012 2°44.72 -999 0.062099 0.358148 -0.814958
2005-10-18 09:49:11 51°29.074 2°45.005 -999 0.062099 0.358196 -0.814958
2005-10-18 09:50:12 51°29.139 2°45.301 -999 0.062099 0.35825 -0.814958
2005-10-18 09:51:11 51°29.197 2°45.592 -999 0.062099 0.358305 -0.814958
2005-10-18 09:52:13 51°29.265 2°45.885 -999 0.062099 0.358345 -0.781249
2005-10-18 09:53:12 51°29.33 2°46.166 -999 0.062099 0.358407 -0.781249
2005-10-18 09:54:11 51°29.394 2°46.447 -999 0.062099 0.358468 -0.814958
2005-10-18 09:55:11 51°29.458 2°46.732 -999 0.062099 0.358495 -0.74754
2005-10-18 09:56:11 51°29.527 2°47.009 -999 0.062099 0.358584 -0.781249
2005-10-18 09:57:12 51°29.685 2°47.162 -999 0.062099 0.358639 -0.781249
2005-10-18 09:58:11 51°29.875 2°47.14 -999 0.062099 0.358687 -0.781249
2005-10-18 09:59:13 51°30.073 2°47.09 -999 0.062099 0.358748 -0.781249
2005-10-18 10:00:13 51°30.236 2°46.886 -999 0.062099 0.358796 -0.781249
2005-10-18 10:01:12 51°30.216 2°46.558 -999 0.062099 0.358858 -0.781249
2005-10-18 10:02:12 51°30.113 2°46.222 -999 0.062099 0.358858 -0.781249
2005-10-18 10:03:12 51°30.012 2°45.878 -999 0.062099 0.358899 -0.814958
2005-10-18 10:04:11 51°29.916 2°45.545 -999 0.062099 0.35894 -0.814958
2005-10-18 10:05:12 51°29.809 2°45.201 -999 0.062099 0.35896 -0.814958
2005-10-18 10:06:11 51°29.698 2°44.873 -999 0.062099 0.358994 -0.814958
2005-10-18 10:07:12 51°29.575 2°44.546 -999 0.062099 0.359035 -0.814958
2005-10-18 10:08:12 51°29.438 2°44.239 -999 0.062099 0.35907 -0.814958
2005-10-18 10:09:12 51°29.298 2°43.935 -999 0.062099 0.35909 -0.814958
2005-10-18 10:10:11 51°29.163 2°43.633 -999 0.061996 0.358503 -0.814958
2005-10-18 10:11:11 51°29.023 2°43.331 -999 0.062099 0.359131 -0.814958
2005-10-18 10:12:11 51°28.887 2°43.024 -999 0.061996 0.358592 -0.814958
2005-10-18 10:13:13 51°28.742 2°42.704 -999 0.061996 0.358613 -0.814958
2005-10-18 10:14:13 51°28.593 2°42.41 -999 0.061996 0.358667 -0.848668
2005-10-18 10:15:11 51°28.415 2°42.187 -999 0.061996 0.358695 -0.814958
2005-10-18 10:16:11 51°28.196 2°42.092 -999 0.061996 0.358709 -0.848668
2005-10-18 10:17:12 51°27.968 2°42.11 -999 0.061996 0.35875 -0.848668
2005-10-18 10:18:12 51°27.748 2°42.167 -999 0.061996 0.35877 -0.848668
2005-10-18 10:19:11 51°27.533 2°42.234 -999 0.061996 0.358798 -0.848668
2005-10-18 10:20:11 51°27.317 2°42.309 -999 0.061996 0.358825 -0.814958
2005-10-18 10:21:13 51°27.092 2°42.382 -999 0.061996 0.358866 -0.814958
2005-10-18 10:22:11 51°26.883 2°42.45 -999 0.061996 0.35888 -0.848668
2005-10-18 10:23:13 51°26.66 2°42.516 -999 0.061996 0.358941 -0.848668
2005-10-18 10:24:11 51°26.456 2°42.595 -999 0.061996 0.358962 -0.848668
2005-10-18 10:25:12 51°26.241 2°42.68 -999 0.061996 0.359017 -0.814958
2005-10-18 10:26:11 51°26.034 2°42.774 -999 0.061996 0.359038 -0.814958
2005-10-18 10:27:11 51°25.823 2°42.874 -999 0.061996 0.359065 -0.848668
2005-10-18 10:28:13 51°25.606 2°42.976 -999 0.061996 0.359092 -0.848668
2005-10-18 10:29:13 51°25.395 2°43.08 -999 0.061996 0.359127 -0.848668
2005-10-18 10:30:12 51°25.185 2°43.18 -999 0.061996 0.359175 -0.848668
2005-10-18 10:31:13 51°24.969 2°43.279 -999 0.061996 0.359209 -0.848668
2005-10-18 10:32:11 51°24.765 2°43.386 -999 0.061996 0.359237 -0.848668
2005-10-18 10:33:11 51°24.553 2°43.495 -999 0.061996 0.359264 -0.848668
2005-10-18 10:34:11 51°24.343 2°43.599 -999 0.061996 0.359319 -0.848668
2005-10-18 10:35:11 51°24.133 2°43.704 -999 0.061996 0.359347 -0.848668
2005-10-18 10:36:12 51°23.918 2°43.808 -999 0.061996 0.359374 -0.848668
2005-10-18 10:37:11 51°23.712 2°43.905 -999 0.061996 0.359415 -0.848668
2005-10-18 10:38:13 51°23.495 2°44.01 -999 0.061996 0.359443 -0.848668
2005-10-18 10:39:13 51°23.285 2°44.106 -999 0.061996 0.359464 -0.848668
2005-10-18 10:40:13 51°23.075 2°44.195 -999 0.061996 0.359512 -0.848668
2005-10-18 10:41:13 51°22.866 2°44.287 -999 0.061996 0.359594 -0.848668
2005-10-18 10:42:13 51°22.657 2°44.385 -999 0.061893 0.358985 -0.848668
2005-10-18 10:43:12 51°22.451 2°44.484 -999 0.061996 0.359649 -0.848668
2005-10-18 10:44:12 51°22.241 2°44.587 -999 0.061996 0.359691 -0.848668
2005-10-18 10:45:13 51°22.027 2°44.696 -999 0.061893 0.359081 -0.848668
2005-10-18 10:46:11 51°21.824 2°44.801 -999 0.061893 0.359129 -0.848668
2005-10-18 10:47:12 51°21.617 2°44.928 -999 0.061893 0.35915 -0.814958
2005-10-18 10:48:13 51°21.408 2°45.063 -999 0.061893 0.359178 -0.848668
2005-10-18 10:49:13 51°21.206 2°45.195 -999 0.061893 0.359226 -0.848668
2005-10-18 10:50:11 51°21.013 2°45.327 -999 0.061893 0.359246 -0.848668
2005-10-18 10:51:11 51°20.813 2°45.459 -999 0.061893 0.359295 -0.848668
2005-10-18 10:52:11 51°20.619 2°45.61 -999 0.061893 0.359295 -0.848668
2005-10-18 10:53:11 51°20.437 2°45.796 -999 0.061893 0.359336 -0.848668
2005-10-18 10:54:11 51°20.262 2°46.006 -999 0.061893 0.359364 -0.848668
2005-10-18 10:55:11 51°20.085 2°46.214 -999 0.061893 0.359391 -0.848668
2005-10-18 10:56:11 51°19.906 2°46.422 -999 0.061893 0.359432 -0.848668
2005-10-18 10:57:12 51°19.726 2°46.636 -999 0.061893 0.359446 -0.848668
2005-10-18 10:58:13 51°19.545 2°46.843 -999 0.061893 0.359501 -0.848668
2005-10-18 10:59:12 51°19.37 2°47.036 -999 0.061893 0.359557 -0.848668
2005-10-18 11:00:11 51°19.197 2°47.231 -999 0.061893 0.359557 -0.848668
2005-10-18 11:01:12 51°19.018 2°47.434 -999 0.061893 0.359584 -0.848668
2005-10-18 11:02:12 51°18.841 2°47.636 -999 0.061893 0.359619 -0.848668
2005-10-18 11:03:12 51°18.663 2°47.839 -999 0.061893 0.359653 -0.848668
2005-10-18 11:04:13 51°18.485 2°48.052 -999 0.061893 0.359715 -0.848668
2005-10-18 11:05:13 51°18.306 2°48.254 -999 0.061893 0.35975 -0.848668
2005-10-18 11:06:13 51°18.126 2°48.459 -999 0.061893 0.35975 -0.848668
2005-10-18 11:07:12 51°17.946 2°48.653 -999 0.061893 0.359791 -0.848668
2005-10-18 11:08:12 51°17.765 2°48.85 -999 0.061893 0.359826 -0.848668
2005-10-18 11:09:13 51°17.58 2°49.045 -999 0.061893 0.359867 -0.848668
2005-10-18 11:10:12 51°17.404 2°49.233 -999 0.061893 0.359888 -0.848668
2005-10-18 11:11:13 51°17.216 2°49.416 -999 0.061893 0.359923 -0.848668
2005-10-18 11:12:13 51°17.033 2°49.595 -999 0.06179 0.359353 -0.848668
2005-10-18 11:13:11 51°16.861 2°49.739 -999 0.06179 0.359381 -0.848668
2005-10-18 11:14:12 51°16.754 2°49.8 -999 0.06179 0.359415 -0.848668
2005-10-18 11:15:12 51°16.69 2°49.829 -999 0.06179 0.359457 -0.848668
2005-10-18 11:16:12 51°16.654 2°49.834 -999 0.06179 0.359498 -0.848668
2005-10-18 11:17:13 51°16.655 2°49.826 -999 0.06179 0.35954 -0.848668
2005-10-18 11:18:12 51°16.659 2°49.827 -999 0.06179 0.359567 -0.848668
2005-10-18 11:19:13 51°16.656 2°49.825 -999 0.06179 0.359602 -0.848668
2005-10-18 11:20:13 51°16.662 2°49.838 -999 0.06179 0.359623 -0.848668
2005-10-18 11:21:13 51°16.651 2°49.823 -999 0.06179 0.359644 -0.848668
2005-10-18 11:22:12 51°16.656 2°49.828 -999 0.06179 0.359678 -0.848668
2005-10-18 11:23:13 51°16.66 2°49.83 -999 0.06179 0.35972 -0.848668
2005-10-18 11:24:13 51°16.661 2°49.836 -999 0.06179 0.359734 -0.848668
2005-10-18 11:25:12 51°16.658 2°49.829 -999 0.06179 0.359761 -0.848668
2005-10-18 11:26:13 51°16.659 2°49.824 -999 0.06179 0.359796 -0.848668
2005-10-18 11:27:13 51°16.687 2°49.865 -999 0.06179 0.35981 -0.848668
2005-10-18 11:28:13 51°16.672 2°49.872 -999 0.06179 0.359851 -0.848668
2005-10-18 11:29:12 51°16.564 2°49.928 -999 0.06179 0.359872 -0.848668
2005-10-18 11:30:13 51°16.41 2°50.071 -999 0.06179 0.3599 -0.848668
2005-10-18 11:31:12 51°16.266 2°50.33 -999 0.06179 0.359928 -0.882377
2005-10-18 11:32:13 51°16.127 2°50.626 -999 0.06179 0.359941 -0.848668
2005-10-18 11:33:11 51°15.991 2°50.9 -999 0.06179 0.359983 -0.848668
2005-10-18 11:34:12 51°15.87 2°51.217 -999 0.061687 0.359392 -0.882377
2005-10-18 11:35:11 51°15.752 2°51.518 -999 0.061687 0.359405 -0.848668
2005-10-18 11:36:11 51°15.63 2°51.817 -999 0.061687 0.359468 -0.882377
2005-10-18 11:37:13 51°15.499 2°52.119 -999 0.061687 0.359482 -0.848668
2005-10-18 11:38:11 51°15.374 2°52.404 -999 0.061687 0.359523 -0.848668
2005-10-18 11:39:11 51°15.243 2°52.693 -999 0.061687 0.359558 -0.848668
2005-10-18 11:40:11 51°15.112 2°52.98 -999 0.061687 0.359579 -0.848668
2005-10-18 11:41:11 51°14.985 2°53.261 -999 0.061687 0.35962 -0.848668
2005-10-18 11:42:13 51°14.883 2°53.496 -999 0.061687 0.359648 -0.848668
2005-10-18 11:43:12 51°14.803 2°53.694 -999 0.061687 0.359683 -0.882377
2005-10-18 11:44:12 51°14.748 2°53.847 -999 0.061687 0.359724 -0.848668
2005-10-18 11:45:11 51°14.698 2°53.977 -999 0.061687 0.359759 -0.848668
2005-10-18 11:46:11 51°14.663 2°54.119 -999 0.061687 0.359794 -0.848668
2005-10-18 11:47:11 51°14.626 2°54.251 -999 0.061687 0.359822 -0.848668
2005-10-18 11:48:11 51°14.56 2°54.353 -999 0.061687 0.359849 -0.882377
2005-10-18 11:49:12 51°14.489 2°54.443 -999 0.061687 0.359891 -0.882377
2005-10-18 11:50:12 51°14.409 2°54.427 -999 0.061584 0.359299 -0.848668
2005-10-18 11:51:12 51°14.379 2°54.311 -999 0.061584 0.359333 -0.848668
2005-10-18 11:52:12 51°14.458 2°54.253 -999 0.061584 0.359396 -0.882377
2005-10-18 11:53:13 51°14.52 2°54.408 -999 0.061584 0.359424 -0.848668
2005-10-18 11:54:12 51°14.457 2°54.672 -999 0.061584 0.359465 -0.848668
2005-10-18 11:55:12 51°14.378 2°54.987 -999 0.061584 0.359535 -0.882377
2005-10-18 11:56:13 51°14.267 2°55.244 -999 0.061584 0.359569 -0.848668
2005-10-18 11:57:12 51°14.145 2°55.392 -999 0.061584 0.359604 -0.882377
2005-10-18 11:58:12 51°14.045 2°55.464 -999 0.061584 0.359646 -0.882377
2005-10-18 11:59:12 51°13.943 2°55.538 -999 0.061584 0.359688 -0.848668
2005-10-18 12:00:12 51°13.842 2°55.618 -999 0.061584 0.359722 -0.882377
2005-10-18 12:01:12 51°13.745 2°55.723 -999 0.061584 0.35975 -0.882377
2005-10-18 12:02:12 51°13.675 2°55.865 -999 0.061482 0.359164 -0.848668
2005-10-18 12:03:12 51°13.631 2°55.972 -999 0.061482 0.359185 -0.882377
2005-10-18 12:04:12 51°13.612 2°56.055 -999 0.061482 0.359227 -0.848668
2005-10-18 12:05:12 51°13.602 2°56.098 -999 0.061482 0.359261 -0.882377
2005-10-18 12:06:12 51°13.601 2°56.1 -999 0.061482 0.359289 -0.848668
2005-10-18 12:07:12 51°13.601 2°56.1 -999 0.061482 0.359296 -0.882377